createdAt,value
2019-02-14T00:01:15.137Z,16.20
2019-02-14T00:03:43.876Z,14.57
2019-02-14T00:06:12.635Z,14.53
2019-02-14T00:08:41.351Z,9.93
2019-02-14T00:11:10.078Z,14.03
2019-02-14T00:13:39.094Z,7.43
2019-02-14T00:16:07.829Z,10.53
2019-02-14T00:18:36.544Z,18.43
2019-02-14T00:21:05.318Z,14.40
2019-02-14T00:23:34.052Z,13.90
2019-02-14T00:26:02.774Z,15.10
2019-02-14T00:28:31.652Z,12.27
2019-02-14T00:31:00.379Z,12.43
2019-02-14T00:33:29.105Z,15.60
2019-02-14T00:35:57.896Z,11.03
2019-02-14T00:38:26.621Z,13.40
2019-02-14T00:40:55.347Z,14.30
2019-02-14T00:43:24.154Z,16.40
2019-02-14T00:45:52.882Z,18.40
2019-02-14T00:48:21.608Z,20.30
2019-02-14T00:50:50.761Z,19.50
2019-02-14T00:53:19.478Z,11.60
2019-02-14T00:55:48.206Z,9.53
2019-02-14T00:58:16.987Z,13.03
2019-02-14T01:00:45.656Z,14.70
2019-02-14T01:03:14.352Z,16.80
2019-02-14T01:05:43.083Z,15.20
2019-02-14T01:08:11.828Z,13.70
2019-02-14T01:10:40.567Z,18.93
2019-02-14T01:13:09.449Z,11.10
2019-02-14T01:15:38.488Z,12.07
2019-02-14T01:18:07.226Z,11.93
2019-02-14T01:20:36.316Z,11.13
2019-02-14T01:23:05.041Z,8.47
2019-02-14T01:25:33.769Z,8.80
2019-02-14T01:28:02.653Z,11.20
2019-02-14T01:30:31.373Z,11.70
2019-02-14T01:33:00.104Z,10.67
2019-02-14T01:35:28.895Z,14.23
2019-02-14T01:37:57.617Z,11.17
2019-02-14T01:40:26.345Z,9.47
2019-02-14T01:42:55.206Z,8.70
2019-02-14T01:45:23.873Z,8.83
2019-02-14T01:47:52.561Z,8.73
2019-02-14T01:50:21.347Z,11.53
2019-02-14T01:52:50.073Z,10.50
2019-02-14T01:55:18.741Z,10.00
2019-02-14T01:57:47.467Z,10.20
2019-02-14T02:00:16.908Z,13.60
2019-02-14T02:02:45.631Z,18.40
2019-02-14T02:05:14.915Z,16.93
2019-02-14T02:07:43.639Z,15.93
2019-02-14T02:10:13.266Z,11.80
2019-02-14T02:12:42.517Z,14.53
2019-02-14T02:15:13.508Z,12.47
2019-02-14T02:17:42.282Z,11.87
2019-02-14T02:20:11.538Z,10.10
2019-02-14T02:22:40.263Z,10.20
2019-02-14T02:25:11.289Z,8.73
2019-02-14T02:27:40.184Z,12.50
2019-02-14T02:30:11.707Z,11.70
2019-02-14T02:32:40.438Z,11.70
2019-02-14T02:35:09.601Z,11.93
2019-02-14T02:37:38.320Z,8.13
2019-02-14T02:40:08.959Z,8.33
2019-02-14T02:42:38.024Z,9.10
2019-02-14T02:45:10.053Z,11.57
2019-02-14T02:47:38.773Z,9.43
2019-02-14T02:50:10.242Z,10.30
2019-02-14T02:52:38.973Z,9.50
2019-02-14T02:55:09.601Z,10.10
2019-02-14T02:57:38.483Z,9.77
2019-02-14T03:00:15.741Z,12.07
2019-02-14T03:02:44.523Z,5.83
2019-02-14T03:05:15.351Z,6.37
2019-02-14T03:07:44.071Z,6.73
2019-02-14T03:10:14.039Z,8.33
2019-02-14T03:12:42.781Z,7.53
2019-02-14T03:15:15.408Z,7.53
2019-02-14T03:17:44.508Z,8.33
2019-02-14T03:20:13.739Z,9.03
2019-02-14T03:22:42.506Z,7.63
2019-02-14T03:25:16.662Z,5.83
2019-02-14T03:27:45.387Z,7.87
2019-02-14T03:30:16.011Z,6.83
2019-02-14T03:32:44.873Z,9.53
2019-02-14T03:35:13.616Z,10.87
2019-02-14T03:37:42.337Z,12.57
2019-02-14T03:40:13.383Z,9.50
2019-02-14T03:42:42.117Z,9.10
2019-02-14T03:45:16.752Z,9.57
2019-02-14T03:47:45.480Z,11.37
2019-02-14T03:50:15.081Z,12.90
2019-02-14T03:52:43.976Z,15.77
2019-02-14T03:55:12.843Z,9.03
2019-02-14T03:57:41.565Z,12.97
2019-02-14T04:00:15.826Z,13.77
2019-02-14T04:02:44.551Z,15.00
2019-02-14T04:05:13.489Z,16.10
2019-02-14T04:07:42.498Z,18.10
2019-02-14T04:10:13.233Z,20.33
2019-02-14T04:12:41.957Z,20.63
2019-02-14T04:15:15.741Z,24.33
2019-02-14T04:17:44.477Z,15.00
2019-02-14T04:20:13.478Z,12.27
2019-02-14T04:22:42.802Z,11.23
2019-02-14T04:25:11.830Z,11.77
2019-02-14T04:27:40.553Z,10.53
2019-02-14T04:30:13.841Z,12.07
2019-02-14T04:32:42.631Z,12.23
2019-02-14T04:35:11.971Z,17.03
2019-02-14T04:37:40.828Z,18.13
2019-02-14T04:40:12.075Z,22.03
2019-02-14T04:42:40.800Z,26.07
2019-02-14T04:45:11.429Z,23.90
2019-02-14T04:47:40.144Z,17.23
2019-02-14T04:50:10.763Z,14.17
2019-02-14T04:52:39.964Z,17.23
2019-02-14T04:55:10.394Z,19.67
2019-02-14T04:57:39.132Z,24.83
2019-02-14T05:00:12.792Z,29.93
2019-02-14T05:02:41.523Z,25.67
2019-02-14T05:05:10.844Z,20.43
2019-02-14T05:07:41.125Z,15.53
2019-02-14T05:10:13.123Z,22.00
2019-02-14T05:12:41.858Z,22.57
2019-02-14T05:15:11.852Z,14.97
2019-02-14T05:17:40.582Z,19.10
2019-02-14T05:20:11.107Z,13.27
2019-02-14T05:22:39.866Z,13.27
2019-02-14T05:25:09.532Z,11.20
2019-02-14T05:27:38.253Z,12.27
2019-02-14T05:30:10.304Z,21.07
2019-02-14T05:32:39.040Z,21.23
2019-02-14T05:35:08.767Z,33.07
2019-02-14T05:37:37.637Z,37.40
2019-02-14T05:40:09.174Z,47.00
2019-02-14T05:42:38.109Z,59.43
2019-02-14T05:45:12.097Z,62.47
2019-02-14T05:47:40.835Z,64.50
2019-02-14T05:50:11.464Z,143.00
2019-02-14T05:52:40.318Z,76.00
2019-02-14T05:55:10.960Z,161.20
2019-02-14T05:57:39.693Z,108.47
2019-02-14T06:00:11.407Z,78.63
2019-02-14T06:02:40.135Z,61.40
2019-02-14T06:05:09.266Z,63.67
2019-02-14T06:07:38.168Z,50.17
2019-02-14T06:10:09.400Z,170.27
2019-02-14T06:12:38.131Z,133.80
2019-02-14T06:15:11.994Z,112.43
2019-02-14T06:17:40.731Z,385.67
2019-02-14T06:20:13.453Z,355.83
2019-02-14T06:22:42.227Z,116.10
2019-02-14T06:25:12.376Z,59.87
2019-02-14T06:27:41.193Z,41.00
2019-02-14T06:30:15.089Z,31.30
2019-02-14T06:32:43.836Z,25.23
2019-02-14T06:35:12.765Z,31.67
2019-02-14T06:37:41.535Z,34.33
2019-02-14T06:40:14.216Z,41.17
2019-02-14T06:42:42.942Z,48.07
2019-02-14T06:45:17.285Z,30.10
2019-02-14T06:47:46.015Z,70.63
2019-02-14T06:50:14.754Z,129.97
2019-02-14T06:52:43.937Z,52.90
2019-02-14T06:55:12.662Z,123.80
2019-02-14T06:57:41.400Z,78.07
2019-02-14T07:00:15.451Z,49.57
2019-02-14T07:02:44.192Z,81.57
2019-02-14T07:05:12.960Z,35.10
2019-02-14T07:07:41.971Z,36.53
2019-02-14T07:10:11.898Z,44.73
2019-02-14T07:12:40.640Z,22.70
2019-02-14T07:15:14.599Z,22.40
2019-02-14T07:17:43.327Z,29.80
2019-02-14T07:20:18.350Z,20.57
2019-02-14T07:22:47.107Z,21.27
2019-02-14T07:25:15.845Z,13.53
2019-02-14T07:27:44.796Z,13.50
2019-02-14T07:30:21.581Z,11.17
2019-02-14T07:32:50.446Z,13.80
2019-02-14T07:35:19.378Z,25.63
2019-02-14T07:37:48.107Z,14.93
2019-02-14T07:40:17.325Z,21.07
2019-02-14T07:42:46.054Z,40.87
2019-02-14T07:45:19.437Z,64.57
2019-02-14T07:47:48.291Z,17.60
2019-02-14T07:50:17.028Z,23.97
2019-02-14T07:52:45.748Z,16.13
2019-02-14T07:55:15.327Z,13.20
2019-02-14T07:57:44.071Z,15.87
2019-02-14T08:00:14.795Z,12.00
2019-02-14T08:02:43.673Z,11.17
2019-02-14T08:05:12.501Z,13.63
2019-02-14T08:07:41.223Z,14.27
2019-02-14T08:10:12.777Z,15.70
2019-02-14T08:12:41.502Z,8.67
2019-02-14T08:15:12.720Z,8.73
2019-02-14T08:17:41.950Z,11.47
2019-02-14T08:20:15.919Z,13.77
2019-02-14T08:22:44.639Z,10.50
2019-02-14T08:25:14.487Z,10.00
2019-02-14T08:27:43.219Z,13.67
2019-02-14T08:30:21.511Z,12.70
2019-02-14T08:32:50.233Z,15.17
2019-02-14T08:35:18.953Z,14.53
2019-02-14T08:37:47.766Z,10.33
2019-02-14T08:40:27.281Z,9.43
2019-02-14T08:42:56.038Z,6.80
2019-02-14T08:45:24.764Z,10.63
2019-02-14T08:47:53.483Z,9.40
2019-02-14T08:50:22.362Z,18.57
2019-02-14T08:52:51.090Z,12.33
2019-02-14T08:55:19.812Z,12.03
2019-02-14T08:57:48.766Z,14.47
2019-02-14T09:00:20.746Z,7.57
2019-02-14T09:02:49.479Z,7.90
2019-02-14T09:05:18.542Z,10.37
2019-02-14T09:07:54.342Z,6.70
2019-02-14T09:10:18.323Z,8.53
2019-02-14T09:12:47.099Z,7.07
2019-02-14T09:15:17.013Z,5.70
2019-02-14T09:17:45.737Z,8.87
2019-02-14T09:20:21.961Z,6.13
2019-02-14T09:22:50.688Z,6.37
2019-02-14T09:25:19.406Z,4.67
2019-02-14T09:27:48.284Z,5.30
2019-02-14T09:30:17.002Z,9.87
2019-02-14T09:32:45.760Z,5.43
2019-02-14T09:35:14.650Z,6.10
2019-02-14T09:37:43.372Z,4.23
2019-02-14T09:40:16.829Z,4.93
2019-02-14T09:42:45.742Z,5.27
2019-02-14T09:45:15.051Z,7.10
2019-02-14T09:47:43.778Z,7.40
2019-02-14T09:50:15.985Z,5.97
2019-02-14T09:52:44.726Z,6.40
2019-02-14T09:55:14.380Z,5.97
2019-02-14T09:57:43.766Z,4.80
2019-02-14T10:00:17.305Z,2.77
2019-02-14T10:02:46.169Z,3.70
2019-02-14T10:05:16.049Z,6.77
2019-02-14T10:07:44.776Z,5.20
2019-02-14T10:10:18.838Z,4.63
2019-02-14T10:12:47.711Z,5.73
2019-02-14T10:15:16.431Z,3.87
2019-02-14T10:17:45.166Z,7.67
2019-02-14T10:20:17.761Z,4.40
2019-02-14T10:22:46.475Z,8.63
2019-02-14T10:25:15.298Z,4.17
2019-02-14T10:27:44.172Z,3.83
2019-02-14T10:30:20.053Z,5.70
2019-02-14T10:32:48.813Z,6.57
2019-02-14T10:35:17.526Z,4.53
2019-02-14T10:37:46.290Z,6.30
2019-02-14T10:40:16.391Z,6.43
2019-02-14T10:42:45.088Z,4.73
2019-02-14T10:45:24.659Z,12.10
2019-02-14T10:47:53.377Z,8.20
2019-02-14T10:50:22.098Z,8.27
2019-02-14T10:52:50.855Z,7.10
2019-02-14T10:55:19.573Z,7.50
2019-02-14T10:57:48.287Z,7.33
2019-02-14T11:00:32.121Z,5.93
2019-02-14T11:03:00.850Z,13.30
2019-02-14T11:05:29.665Z,5.53
2019-02-14T11:07:58.543Z,6.70
2019-02-14T11:10:27.389Z,6.60
2019-02-14T11:12:56.154Z,8.73
2019-02-14T11:15:25.913Z,11.47
2019-02-14T11:17:54.638Z,13.20
2019-02-14T11:20:23.368Z,6.37
2019-02-14T11:22:52.130Z,5.90
2019-02-14T11:25:32.643Z,4.60
2019-02-14T11:28:01.406Z,9.43
2019-02-14T11:30:30.131Z,4.17
2019-02-14T11:32:58.854Z,6.07
2019-02-14T11:35:27.743Z,7.30
2019-02-14T11:37:56.472Z,3.00
2019-02-14T11:40:25.220Z,3.13
2019-02-14T11:42:54.082Z,5.40
2019-02-14T11:45:24.012Z,4.37
2019-02-14T11:47:52.740Z,8.43
2019-02-14T11:50:21.540Z,6.80
2019-02-14T11:52:50.260Z,5.83
2019-02-14T11:55:18.990Z,2.40
2019-02-14T11:57:47.759Z,3.77
2019-02-14T12:00:27.914Z,5.40
2019-02-14T12:02:56.851Z,4.70
2019-02-14T12:05:25.574Z,7.63
2019-02-14T12:07:54.309Z,4.80
2019-02-14T12:10:23.057Z,3.40
2019-02-14T12:12:51.788Z,1.70
2019-02-14T12:15:20.507Z,6.20
2019-02-14T12:17:49.282Z,3.43
2019-02-14T12:20:17.994Z,5.47
2019-02-14T12:22:47.422Z,2.03
2019-02-14T12:25:22.100Z,5.67
2019-02-14T12:27:50.813Z,3.50
2019-02-14T12:30:19.537Z,3.43
2019-02-14T12:32:48.315Z,75.23
2019-02-14T12:35:17.033Z,6.53
2019-02-14T12:37:45.767Z,6.37
2019-02-14T12:40:15.061Z,4.90
2019-02-14T12:42:43.785Z,4.50
2019-02-14T12:45:21.568Z,9.30
2019-02-14T12:47:48.558Z,5.23
2019-02-14T12:50:17.276Z,7.60
2019-02-14T12:52:45.999Z,7.50
2019-02-14T12:55:14.777Z,6.07
2019-02-14T12:57:43.514Z,6.60
2019-02-14T13:00:23.737Z,11.20
2019-02-14T13:02:52.564Z,13.20
2019-02-14T13:05:21.287Z,14.33
2019-02-14T13:07:50.064Z,14.83
2019-02-14T13:10:19.297Z,13.00
2019-02-14T13:12:48.112Z,9.73
2019-02-14T13:15:28.216Z,11.17
2019-02-14T13:17:56.942Z,10.47
2019-02-14T13:20:25.665Z,19.93
2019-02-14T13:22:54.853Z,15.33
2019-02-14T13:25:23.573Z,9.63
2019-02-14T13:27:52.369Z,7.23
2019-02-14T13:30:24.099Z,11.20
2019-02-14T13:32:52.815Z,5.90
2019-02-14T13:35:21.553Z,8.90
2019-02-14T13:37:50.570Z,8.33
2019-02-14T13:40:19.299Z,15.83
2019-02-14T13:42:48.112Z,11.43
2019-02-14T13:45:19.882Z,18.37
2019-02-14T13:47:48.609Z,8.57
2019-02-14T13:50:17.453Z,12.10
2019-02-14T13:52:46.254Z,4.87
2019-02-14T13:55:14.993Z,15.20
2019-02-14T13:57:43.816Z,6.77
2019-02-14T14:00:24.414Z,4.53
2019-02-14T14:02:53.140Z,2.87
2019-02-14T14:05:21.968Z,13.83
2019-02-14T14:07:50.748Z,5.77
2019-02-14T14:10:19.565Z,4.60
2019-02-14T14:12:48.291Z,7.77
2019-02-14T14:15:17.060Z,9.43
2019-02-14T14:17:45.787Z,3.77
2019-02-14T14:20:14.515Z,6.20
2019-02-14T14:22:43.409Z,5.13
2019-02-14T14:25:12.651Z,8.17
2019-02-14T14:27:41.466Z,8.33
2019-02-14T14:30:12.639Z,9.30
2019-02-14T14:32:41.358Z,13.90
2019-02-14T14:35:11.456Z,11.80
2019-02-14T14:37:40.922Z,13.87
2019-02-14T14:40:12.569Z,13.73
2019-02-14T14:42:52.118Z,6.93
2019-02-14T14:45:38.226Z,10.67
2019-02-14T14:48:07.551Z,12.60
2019-02-14T14:50:36.273Z,15.37
2019-02-14T14:53:04.998Z,16.50
2019-02-14T14:55:33.761Z,16.07
2019-02-14T14:58:02.492Z,15.63
2019-02-14T15:00:31.223Z,18.30
2019-02-14T15:02:59.992Z,15.30
2019-02-14T15:05:28.726Z,13.23
2019-02-14T15:07:57.547Z,13.07
2019-02-14T15:10:26.717Z,19.00
2019-02-14T15:12:55.458Z,21.33
2019-02-14T15:15:24.184Z,16.43
2019-02-14T15:17:52.940Z,25.17
2019-02-14T15:20:21.671Z,28.63
2019-02-14T15:22:50.401Z,23.33
2019-02-14T15:25:19.194Z,23.30
2019-02-14T15:27:47.922Z,30.60
2019-02-14T15:30:16.648Z,33.70
2019-02-14T15:32:45.478Z,30.53
2019-02-14T15:35:14.201Z,33.77
2019-02-14T15:37:44.573Z,34.30
2019-02-14T15:40:13.440Z,35.97
2019-02-14T15:42:42.159Z,43.83
2019-02-14T15:45:10.904Z,41.83
2019-02-14T15:47:41.722Z,41.50
2019-02-14T15:50:10.459Z,36.17
2019-02-14T15:52:39.178Z,36.07
2019-02-14T15:55:08.446Z,48.03
2019-02-14T15:57:37.182Z,31.17
2019-02-14T16:00:11.969Z,45.57
2019-02-14T16:02:40.744Z,52.80
2019-02-14T16:05:09.664Z,46.57
2019-02-14T16:07:39.488Z,79.83
2019-02-14T16:10:18.108Z,70.23
2019-02-14T16:12:41.237Z,83.30
2019-02-14T16:15:10.660Z,70.90
2019-02-14T16:17:39.956Z,71.10
2019-02-14T16:20:09.811Z,83.07
2019-02-14T16:25:40.057Z,31.03
2019-02-14T16:28:09.872Z,36.90
2019-02-14T16:30:39.321Z,25.53
2019-02-14T16:33:08.058Z,29.77
2019-02-14T16:35:36.852Z,40.60
2019-02-14T16:38:05.580Z,50.63
2019-02-14T16:40:38.519Z,74.43
2019-02-14T16:43:04.891Z,86.97
2019-02-14T16:45:33.623Z,91.63
2019-02-14T16:48:02.354Z,110.73
2019-02-14T16:50:31.166Z,111.27
2019-02-14T16:52:59.939Z,73.83
2019-02-14T16:55:28.666Z,62.17
2019-02-14T16:57:57.460Z,62.70
2019-02-14T17:00:26.196Z,73.07
2019-02-14T17:02:54.922Z,63.27
2019-02-14T17:05:23.693Z,42.93
2019-02-14T17:07:52.413Z,99.03
2019-02-14T17:10:21.145Z,105.67
2019-02-14T17:12:50.108Z,77.20
2019-02-14T17:15:20.012Z,109.93
2019-02-14T17:17:50.898Z,71.07
2019-02-14T17:20:19.785Z,43.50
2019-02-14T17:22:49.969Z,76.33
2019-02-14T17:25:18.695Z,50.80
2019-02-14T17:27:47.461Z,52.00
2019-02-14T17:30:16.196Z,83.93
2019-02-14T17:32:44.933Z,126.30
2019-02-14T17:35:13.807Z,142.47
2019-02-14T17:37:42.552Z,95.37
2019-02-14T17:40:11.285Z,63.60
2019-02-14T17:42:40.355Z,71.57
2019-02-14T17:45:10.687Z,112.97
2019-02-14T17:47:39.415Z,101.40
2019-02-14T17:50:09.292Z,87.67
2019-02-14T17:52:38.059Z,110.77
2019-02-14T17:55:09.180Z,136.17
2019-02-14T17:57:38.268Z,87.87
2019-02-14T18:00:12.437Z,71.17
2019-02-14T18:02:41.206Z,106.53
2019-02-14T18:05:11.161Z,120.60
2019-02-14T18:07:40.087Z,120.30
2019-02-14T18:10:13.262Z,91.93
2019-02-14T18:12:42.025Z,67.50
2019-02-14T18:15:13.063Z,126.27
2019-02-14T18:17:41.804Z,123.03
2019-02-14T18:20:11.614Z,87.53
2019-02-14T18:22:40.440Z,88.47
2019-02-14T18:25:11.285Z,114.87
2019-02-14T18:27:40.180Z,91.00
2019-02-14T18:30:10.813Z,83.67
2019-02-14T18:32:39.538Z,86.53
2019-02-14T18:35:10.927Z,74.43
2019-02-14T18:37:39.657Z,73.13
2019-02-14T18:40:10.087Z,79.27
2019-02-14T18:42:41.493Z,48.67
2019-02-14T18:45:13.963Z,58.73
2019-02-14T18:47:42.694Z,77.30
2019-02-14T18:50:13.448Z,88.10
2019-02-14T18:52:42.155Z,98.60
2019-02-14T18:55:13.895Z,92.60
2019-02-14T18:57:43.705Z,61.30
2019-02-14T19:00:17.705Z,44.80
2019-02-14T19:02:46.425Z,71.77
2019-02-14T19:05:15.199Z,57.67
2019-02-14T19:07:43.933Z,50.60
2019-02-14T19:10:31.733Z,46.70
2019-02-14T19:13:00.456Z,45.40
2019-02-14T19:15:29.181Z,53.80
2019-02-14T19:18:12.844Z,76.33
2019-02-14T19:20:38.951Z,63.87
2019-02-14T19:23:07.692Z,61.23
2019-02-14T19:25:36.554Z,38.53
2019-02-14T19:28:05.289Z,25.87
2019-02-14T19:30:34.009Z,38.17
2019-02-14T19:33:03.318Z,44.00
2019-02-14T19:35:32.053Z,247.73
2019-02-14T19:38:00.793Z,117.43
2019-02-14T19:40:30.067Z,53.37
2019-02-14T19:42:58.797Z,75.33
2019-02-14T19:45:36.352Z,11.97
2019-02-14T19:47:58.128Z,11.63
2019-02-14T19:50:26.844Z,13.40
2019-02-14T19:52:55.569Z,19.37
2019-02-14T19:55:24.457Z,15.40
2019-02-14T19:57:53.190Z,17.03
2019-02-14T20:00:22.028Z,16.73
2019-02-14T20:02:50.830Z,15.77
2019-02-14T20:05:19.565Z,19.40
2019-02-14T20:07:48.353Z,20.70
2019-02-14T20:10:17.332Z,19.60
2019-02-14T20:12:48.971Z,24.07
2019-02-14T20:15:19.809Z,24.00
2019-02-14T20:17:48.575Z,57.23
2019-02-14T20:20:17.324Z,40.87
2019-02-14T20:22:46.037Z,31.00
2019-02-14T20:25:29.239Z,25.93
2019-02-14T20:27:57.935Z,12.43
2019-02-14T20:30:26.653Z,6.27
2019-02-14T20:33:04.387Z,4.57
2019-02-14T20:35:25.964Z,10.37
2019-02-14T20:37:54.693Z,12.37
2019-02-14T20:40:23.572Z,10.37
2019-02-14T20:42:52.298Z,12.80
2019-02-14T20:45:21.016Z,12.17
2019-02-14T20:47:49.890Z,6.03
2019-02-14T20:50:18.606Z,6.93
2019-02-14T20:52:47.328Z,8.10
2019-02-14T20:55:24.921Z,10.27
2019-02-14T20:57:53.642Z,6.83
2019-02-14T21:00:26.463Z,8.47
2019-02-14T21:02:55.472Z,16.67
2019-02-14T21:05:24.407Z,15.87
2019-02-14T21:07:53.125Z,9.73
2019-02-14T21:10:22.000Z,9.80
2019-02-14T21:12:50.730Z,23.23
2019-02-14T21:15:19.584Z,26.00
2019-02-14T21:17:48.700Z,14.37
2019-02-14T21:20:17.635Z,19.83
2019-02-14T21:22:46.387Z,231.13
2019-02-14T21:25:15.902Z,570.00
2019-02-14T21:27:44.637Z,292.60
2019-02-14T21:30:18.258Z,173.33
2019-02-14T21:32:47.171Z,31.67
2019-02-14T21:35:15.991Z,21.13
2019-02-14T21:37:44.736Z,17.77
2019-02-14T21:40:17.426Z,35.07
2019-02-14T21:42:46.166Z,127.17
2019-02-14T21:45:15.985Z,79.77
2019-02-14T21:47:44.794Z,44.37
2019-02-14T21:50:15.120Z,43.70
2019-02-14T21:52:43.860Z,24.43
2019-02-14T21:55:13.792Z,189.50
2019-02-14T21:57:42.507Z,104.33
2019-02-14T22:00:28.709Z,361.03
2019-02-14T22:02:57.474Z,40.50
2019-02-14T22:05:26.812Z,9.30
2019-02-14T22:07:55.866Z,6.17
2019-02-14T22:10:24.580Z,6.17
2019-02-14T22:12:53.482Z,11.67
2019-02-14T22:15:24.638Z,86.00
2019-02-14T22:17:53.364Z,18.17
2019-02-14T22:20:22.075Z,5.43
2019-02-14T22:22:50.848Z,6.13
2019-02-14T22:25:19.566Z,4.43
2019-02-14T22:27:48.312Z,4.43
2019-02-14T22:30:18.241Z,12.90
2019-02-14T22:32:47.072Z,177.37
2019-02-14T22:35:15.805Z,78.33
2019-02-14T22:37:44.673Z,6.07
2019-02-14T22:40:14.226Z,5.47
2019-02-14T22:42:47.527Z,8.70
2019-02-14T22:45:15.375Z,20.40
2019-02-14T22:47:45.308Z,41.57
2019-02-14T22:50:14.347Z,49.57
2019-02-14T22:52:43.642Z,26.30
2019-02-14T22:55:13.766Z,35.47
2019-02-14T22:57:42.495Z,3.60
2019-02-14T23:00:37.252Z,3.33
2019-02-14T23:03:06.367Z,2.80
2019-02-14T23:05:35.107Z,9.33
2019-02-14T23:08:04.159Z,15.17
2019-02-14T23:10:32.895Z,12.87
2019-02-14T23:13:01.638Z,18.10
2019-02-14T23:15:30.513Z,20.03
2019-02-14T23:17:59.246Z,15.80
2019-02-14T23:20:27.972Z,11.47
2019-02-14T23:22:56.752Z,12.17
2019-02-14T23:25:25.468Z,12.87
2019-02-14T23:27:54.200Z,25.50
2019-02-14T23:30:23.004Z,35.00
2019-02-14T23:32:51.732Z,39.13
2019-02-14T23:35:20.468Z,37.27
2019-02-14T23:37:49.329Z,23.43
2019-02-14T23:40:18.065Z,14.50
2019-02-14T23:42:46.782Z,16.07
2019-02-14T23:45:15.670Z,19.00
2019-02-14T23:47:44.407Z,35.60
2019-02-14T23:50:13.140Z,42.33
2019-02-14T23:52:42.116Z,18.90
2019-02-14T23:55:10.849Z,14.40
2019-02-14T23:57:39.559Z,9.43
